Time;durP1;ratioP1;P1;durP2;ratioP2;P2;SDS_P1;SDS_P2;PMS_P1;PMS_P2;Temp;Humidity;BMP_temperature;BMP_pressure;BME280_temperature;BME280_humidity;BME280_pressure;Samples;Min_cycle;Max_cycle;Signal;HPM_P1;HPM_P2
2022/03/14 00:00:36;;;;;;;;;;;;;;;18.60;56.38;102582.94;4985544;28;1610;-33
2022/03/14 00:03:03;;;;;;;;;;;;;;;18.59;56.17;102567.81;4974414;28;1977;-32
2022/03/14 00:05:31;;;;;;;;;;;;;;;18.49;56.69;102580.84;4974149;28;1912;-32
2022/03/14 00:07:59;;;;;;;;;;;;;;;18.49;56.30;102590.72;4970173;28;1872;-32
2022/03/14 00:10:26;;;;;;;;;;;;;;;18.39;56.77;102594.88;4974038;28;1761;-32
2022/03/14 00:12:56;;;;;;;;;;;;;;;18.40;56.73;102596.59;4974319;28;1626;-33
2022/03/14 00:15:23;;;;;;;;;;;;;;;18.31;57.04;102581.06;4971993;28;1151;-30
2022/03/14 00:17:50;;;;;;;;;;;;;;;18.26;56.73;102600.03;4978003;28;1966;-33
2022/03/14 00:20:17;;;;;;;;;;;;;;;18.21;57.13;102597.63;4978154;28;1581;-32
2022/03/14 00:22:45;;;;;;;;;;;;;;;18.19;57.05;102588.81;4977898;28;1971;-32
2022/03/14 00:25:12;;;;;;;;;;;;;;;18.15;56.81;102595.31;4978224;28;1678;-33
2022/03/14 00:27:39;;;;;;;;;;;;;;;18.10;56.94;102602.72;4977920;28;1793;-33
2022/03/14 00:30:07;;;;;;;;;;;;;;;18.06;57.23;102603.84;4972147;28;1070;-33
2022/03/14 00:32:34;;;;;;;;;;;;;;;18.01;57.36;102605.91;4982389;28;1964;-33
2022/03/14 00:35:01;;;;;;;;;;;;;;;17.97;57.21;102590.97;4977643;28;1652;-32
2022/03/14 00:37:27;;;;;;;;;;;;;;;17.92;57.26;102595.69;4978031;28;1786;-33
2022/03/14 00:39:54;;;;;;;;;;;;;;;17.87;57.36;102610.19;4977519;28;2105;-33
2022/03/14 00:42:21;;;;;;;;;;;;;;;17.88;57.30;102606.56;4977869;28;1918;-32
2022/03/14 00:44:49;;;;;;;;;;;;;;;17.83;57.56;102615.78;4978350;28;1054;-32
2022/03/14 00:47:16;;;;;;;;;;;;;;;17.74;57.36;102601.06;4983718;28;1713;-33
2022/03/14 00:49:43;;;;;;;;;;;;;;;17.72;58.08;102604.78;4977319;28;1527;-33
2022/03/14 00:52:10;;;;;;;;;;;;;;;17.71;57.72;102598.56;4977541;28;1584;-33
2022/03/14 00:54:37;;;;;;;;;;;;;;;17.68;57.76;102609.41;4977661;28;1644;-32
2022/03/14 00:57:04;;;;;;;;;;;;;;;17.66;57.54;102595.25;4977340;28;1763;-33
2022/03/14 00:59:30;;;;;;;;;;;;;;;17.65;57.95;102604.25;4977715;28;1139;-32
2022/03/14 01:01:58;;;;;;;;;;;;;;;17.61;57.65;102602.69;4986076;28;1985;-33
2022/03/14 01:04:25;;;;;;;;;;;;;;;17.58;57.53;102603.69;4977059;28;1678;-32
2022/03/14 01:06:51;;;;;;;;;;;;;;;17.56;57.63;102610.94;4968794;28;1454;-33
2022/03/14 01:09:18;;;;;;;;;;;;;;;17.53;58.08;102604.88;4977492;28;1604;-33
2022/03/14 01:11:44;;;;;;;;;;;;;;;17.52;58.23;102624.56;4977109;28;1806;-33
2022/03/14 01:14:11;;;;;;;;;;;;;;;17.50;57.83;102612.13;4979107;28;1550;-32
2022/03/14 01:16:38;;;;;;;;;;;;;;;17.48;57.69;102608.66;4976939;28;1569;-32
2022/03/14 01:19:06;;;;;;;;;;;;;;;17.45;57.90;102614.19;4977125;28;1735;-33
2022/03/14 01:21:32;;;;;;;;;;;;;;;17.42;57.51;102614.34;4982658;28;1986;-33
2022/03/14 01:24:01;;;;;;;;;;;;;;;17.44;57.64;102633.84;4973047;28;1851;-33
2022/03/14 01:26:28;;;;;;;;;;;;;;;17.46;58.15;102615.03;4975917;28;1603;-33
2022/03/14 01:28:54;;;;;;;;;;;;;;;17.50;58.14;102625.50;4979288;28;1593;-33
2022/03/14 01:31:21;;;;;;;;;;;;;;;17.58;57.62;102619.75;4990804;28;1576;-33
2022/03/14 01:33:47;;;;;;;;;;;;;;;17.67;57.61;102623.75;4976770;28;1618;-32
2022/03/14 01:36:15;;;;;;;;;;;;;;;17.79;57.18;102628.47;4976638;28;1823;-32
2022/03/14 01:38:41;;;;;;;;;;;;;;;17.91;56.93;102626.97;4976780;28;1132;-33
2022/03/14 01:41:10;;;;;;;;;;;;;;;17.97;56.64;102634.66;4976728;28;1080;-32
2022/03/14 01:43:36;;;;;;;;;;;;;;;17.99;56.59;102629.22;4976210;28;1902;-32
2022/03/14 01:46:03;;;;;;;;;;;;;;;18.03;56.75;102633.47;4976598;28;1832;-33
2022/03/14 01:48:29;;;;;;;;;;;;;;;18.05;56.45;102636.94;4976468;28;1488;-33
2022/03/14 01:50:56;;;;;;;;;;;;;;;18.06;56.35;102630.59;4976865;28;1518;-32
2022/03/14 01:53:24;;;;;;;;;;;;;;;18.05;56.45;102645.81;4976307;28;1765;-32
2022/03/14 01:55:51;;;;;;;;;;;;;;;18.02;56.38;102629.91;4982729;28;1808;-33
2022/03/14 01:58:18;;;;;;;;;;;;;;;17.99;56.38;102623.88;4978794;28;1935;-32
2022/03/14 02:00:45;;;;;;;;;;;;;;;17.98;56.50;102633.69;4976368;28;1450;-33
2022/03/14 02:03:11;;;;;;;;;;;;;;;17.93;56.48;102638.44;4975928;28;1997;-33
2022/03/14 02:05:38;;;;;;;;;;;;;;;17.89;56.51;102648.44;4976355;28;1801;-33
2022/03/14 02:08:05;;;;;;;;;;;;;;;17.86;56.54;102635.22;4980365;28;1778;-33
2022/03/14 02:10:34;;;;;;;;;;;;;;;17.80;56.70;102632.84;4976437;28;1681;-33
2022/03/14 02:13:04;;;;;;;;;;;;;;;17.80;56.57;102645.38;4975960;28;1968;-33
2022/03/14 02:15:30;;;;;;;;;;;;;;;17.77;56.70;102651.75;4976376;28;1712;-33
2022/03/14 02:17:57;;;;;;;;;;;;;;;17.73;56.80;102646.66;4977250;28;1928;-32
2022/03/14 02:20:24;;;;;;;;;;;;;;;17.72;56.72;102652.94;4976236;28;2016;-33
2022/03/14 02:22:51;;;;;;;;;;;;;;;17.67;56.73;102648.69;4975615;28;1910;-33
2022/03/14 02:25:17;;;;;;;;;;;;;;;17.63;56.65;102654.31;4975710;28;1542;-32
2022/03/14 02:27:44;;;;;;;;;;;;;;;17.66;56.77;102665.69;4975704;28;1806;-32
2022/03/14 02:30:11;;;;;;;;;;;;;;;17.65;56.82;102668.47;4976183;28;1172;-33
2022/03/14 02:32:41;;;;;;;;;;;;;;;17.63;56.88;102673.88;4975709;28;1601;-33
2022/03/14 02:35:08;;;;;;;;;;;;;;;17.56;57.20;102667.13;4976985;28;1503;-33
2022/03/14 02:37:35;;;;;;;;;;;;;;;17.58;56.65;102667.91;4978313;28;1922;-33
2022/03/14 02:40:02;;;;;;;;;;;;;;;17.56;57.25;102669.78;4975789;28;1803;-33
2022/03/14 02:42:28;;;;;;;;;;;;;;;17.53;57.20;102669.06;4975379;28;1898;-34
2022/03/14 02:44:55;;;;;;;;;;;;;;;17.53;56.79;102674.44;4976072;28;1752;-33
2022/03/14 02:47:22;;;;;;;;;;;;;;;17.53;56.80;102685.13;4981389;28;1885;-32
2022/03/14 02:49:49;;;;;;;;;;;;;;;17.51;56.49;102679.88;4975555;28;1819;-32
2022/03/14 02:52:15;;;;;;;;;;;;;;;17.51;56.72;102674.53;4975008;28;1423;-33
2022/03/14 02:54:43;;;;;;;;;;;;;;;17.46;57.02;102679.25;4975576;28;1504;-33
2022/03/14 02:57:10;;;;;;;;;;;;;;;17.49;57.03;102690.66;4981776;28;1747;-33
2022/03/14 02:59:36;;;;;;;;;;;;;;;17.47;56.97;102691.69;4975900;28;1077;-33
2022/03/14 15:01:51;;;;;;;;;;;;;;;20.14;53.88;102836.84;4948058;28;1727;-33
2022/03/14 15:04:18;;;;;;;;;;;;;;;20.17;52.89;102836.66;4974467;28;2038;-32
2022/03/14 15:06:49;;;;;;;;;;;;;;;20.18;52.98;102849.13;4963708;28;1477;-32
2022/03/14 15:09:15;;;;;;;;;;;;;;;20.18;53.71;102830.34;4965583;28;1631;-32
2022/03/14 15:11:42;;;;;;;;;;;;;;;20.17;53.21;102823.22;4965840;28;1667;-33
2022/03/14 15:14:09;;;;;;;;;;;;;;;20.23;53.57;102841.69;4965296;28;1068;-32
2022/03/14 15:16:35;;;;;;;;;;;;;;;20.23;53.99;102830.03;4972749;28;1774;-32
2022/03/14 15:19:03;;;;;;;;;;;;;;;20.13;52.89;102839.63;4965488;28;1572;-32
2022/03/14 15:21:30;;;;;;;;;;;;;;;20.31;52.42;102833.13;4973790;28;1578;-32
2022/03/14 15:23:56;;;;;;;;;;;;;;;20.53;53.30;102834.50;4968971;28;1964;-34
2022/03/14 15:26:26;;;;;;;;;;;;;;;20.82;51.55;102830.03;4964281;28;1016;-32
2022/03/14 15:28:52;;;;;;;;;;;;;;;20.45;53.17;102853.78;4968130;28;1781;-33
2022/03/14 15:31:19;;;;;;;;;;;;;;;20.81;51.20;102839.03;4956840;28;1607;-34
2022/03/14 15:33:45;;;;;;;;;;;;;;;20.70;52.73;102857.69;4964709;28;1811;-32
2022/03/14 15:36:13;;;;;;;;;;;;;;;20.65;52.07;102855.25;4965521;28;1619;-33
2022/03/14 15:38:39;;;;;;;;;;;;;;;21.32;50.94;102852.78;4966465;28;1033;-33
2022/03/14 15:41:06;;;;;;;;;;;;;;;20.90;52.01;102851.91;4962625;28;1762;-32
2022/03/14 15:43:33;;;;;;;;;;;;;;;20.80;52.78;102851.63;4969003;28;2004;-32
2022/03/14 15:45:59;;;;;;;;;;;;;;;20.73;52.44;102849.41;4955877;28;1574;-32
2022/03/14 15:48:26;;;;;;;;;;;;;;;20.70;52.49;102866.59;4964382;28;1447;-34
2022/03/14 15:51:02;;;;;;;;;;;;;;;20.76;52.72;102865.38;4965394;28;1452;-32
2022/03/14 15:53:45;;;;;;;;;;;;;;;20.79;52.74;102854.41;4971926;28;1810;-33
2022/03/14 15:56:16;;;;;;;;;;;;;;;20.70;53.84;102871.13;4966067;28;1840;-32
2022/03/14 15:58:46;;;;;;;;;;;;;;;20.73;53.24;102865.53;4974031;28;1619;-32
2022/03/14 16:03:53;;;;;;;;;;;;;;;20.19;55.35;102850.88;4969294;28;1983;-33
2022/03/14 16:06:20;;;;;;;;;;;;;;;20.09;54.57;102857.75;4973512;28;1713;-32
2022/03/14 16:08:47;;;;;;;;;;;;;;;20.10;54.95;102862.16;4974211;28;1540;-34
2022/03/14 16:11:15;;;;;;;;;;;;;;;19.95;55.38;102853.19;4970180;28;1511;-33
2022/03/14 16:13:45;;;;;;;;;;;;;;;19.68;56.16;102861.88;4972624;28;1514;-33
2022/03/14 16:16:14;;;;;;;;;;;;;;;19.61;56.95;102865.00;4968697;28;1648;-33
2022/03/14 16:18:46;;;;;;;;;;;;;;;19.74;56.58;102868.75;4967719;28;1409;-33
2022/03/14 16:21:12;;;;;;;;;;;;;;;19.61;56.39;102868.56;4971344;28;1359;-33
2022/03/14 16:23:40;;;;;;;;;;;;;;;19.62;56.22;102869.44;4973267;28;1980;-34
2022/03/14 16:26:08;;;;;;;;;;;;;;;19.82;55.89;102874.53;4972205;28;1699;-33
2022/03/14 16:28:37;;;;;;;;;;;;;;;19.64;56.58;102875.59;4970135;28;1301;-33
2022/03/14 16:31:06;;;;;;;;;;;;;;;19.52;58.25;102876.25;4971458;28;1762;-35
2022/03/14 16:33:32;;;;;;;;;;;;;;;19.31;57.46;102879.22;4973009;28;1408;-33
2022/03/14 16:36:00;;;;;;;;;;;;;;;19.26;58.30;102870.59;4970146;28;1143;-35
2022/03/14 16:38:30;;;;;;;;;;;;;;;19.27;58.22;102869.63;4970387;28;1819;-34
2022/03/14 16:40:57;;;;;;;;;;;;;;;19.16;58.55;102870.22;4967037;28;2062;-34
2022/03/14 16:43:25;;;;;;;;;;;;;;;19.17;58.87;102888.03;4969822;28;1911;-34
2022/03/14 16:45:58;;;;;;;;;;;;;;;19.20;58.92;102873.56;4965731;28;1393;-36
2022/03/14 16:48:25;;;;;;;;;;;;;;;19.17;58.65;102881.81;4966529;28;1605;-34
2022/03/14 16:50:55;;;;;;;;;;;;;;;19.04;58.44;102869.09;4972439;28;1328;-35
2022/03/14 16:53:24;;;;;;;;;;;;;;;19.10;58.74;102875.03;4972002;28;1490;-34
2022/03/14 16:58:34;;;;;;;;;;;;;;;19.09;58.93;102879.56;4975086;28;2401;-33
2022/03/14 17:01:07;;;;;;;;;;;;;;;19.22;57.27;102888.66;4971277;28;1519;-35
2022/03/14 17:03:36;;;;;;;;;;;;;;;19.07;57.24;102882.31;4974311;28;1915;-33
2022/03/14 17:06:09;;;;;;;;;;;;;;;19.25;56.72;102882.25;4973111;28;1350;-35
2022/03/14 17:08:40;;;;;;;;;;;;;;;19.47;57.81;102889.94;4977273;28;1613;-34
2022/03/14 17:11:07;;;;;;;;;;;;;;;19.86;55.91;102892.19;4975187;28;1655;-35
2022/03/14 17:13:33;;;;;;;;;;;;;;;19.72;56.78;102905.56;4974027;28;1552;-35
2022/03/14 17:16:00;;;;;;;;;;;;;;;20.03;56.47;102890.34;4974953;28;1758;-35
2022/03/14 17:18:27;;;;;;;;;;;;;;;20.46;55.45;102890.47;4973599;28;1378;-35
2022/03/14 17:20:55;;;;;;;;;;;;;;;20.63;55.83;102887.66;4976072;28;1107;-35
2022/03/14 17:23:23;;;;;;;;;;;;;;;20.81;54.14;102890.13;4974238;28;1975;-33
2022/03/14 17:26:01;;;;;;;;;;;;;;;20.65;55.99;102884.84;4966032;28;1582;-35
2022/03/14 17:28:30;;;;;;;;;;;;;;;20.85;55.21;102894.38;4972493;28;1980;-34
2022/03/14 17:31:00;;;;;;;;;;;;;;;20.75;55.40;102879.75;4976060;28;1730;-34
2022/03/14 17:33:30;;;;;;;;;;;;;;;20.84;55.23;102890.81;4979201;28;1768;-36
2022/03/14 17:35:59;;;;;;;;;;;;;;;20.59;56.67;102904.91;4961074;28;1077;-34
2022/03/14 17:38:31;;;;;;;;;;;;;;;20.32;57.15;102887.75;4974555;28;1526;-35
2022/03/14 17:41:00;;;;;;;;;;;;;;;20.20;57.25;102900.09;4972983;28;1816;-35
2022/03/14 17:43:27;;;;;;;;;;;;;;;20.30;57.98;102906.66;4975933;28;2101;-35
2022/03/14 17:45:54;;;;;;;;;;;;;;;20.08;58.05;102896.31;4969843;28;1605;-35
2022/03/14 17:48:25;;;;;;;;;;;;;;;19.95;58.72;102922.16;4970478;28;1088;-34
2022/03/14 17:50:58;;;;;;;;;;;;;;;19.82;59.20;102901.38;4967681;28;1848;-34
2022/03/14 17:53:25;;;;;;;;;;;;;;;19.84;58.87;102910.22;4963549;28;1468;-35
2022/03/14 17:55:53;;;;;;;;;;;;;;;19.72;60.09;102919.00;4974695;28;1618;-34
2022/03/14 17:58:19;;;;;;;;;;;;;;;19.54;59.89;102917.31;4975009;28;1646;-34
2022/03/14 18:00:46;;;;;;;;;;;;;;;19.42;60.76;102918.88;4976992;28;1975;-36
2022/03/14 18:03:15;;;;;;;;;;;;;;;19.37;60.24;102918.25;4958781;28;1984;-34
2022/03/14 18:05:46;;;;;;;;;;;;;;;19.34;61.27;102903.19;4971582;28;1970;-34
2022/03/14 18:08:21;;;;;;;;;;;;;;;19.37;60.81;102907.53;4971792;28;1547;-34
2022/03/14 18:10:51;;;;;;;;;;;;;;;19.37;60.61;102905.69;4975022;28;1947;-35
2022/03/14 18:13:18;;;;;;;;;;;;;;;19.34;59.57;102916.63;4966745;28;1738;-35
2022/03/14 18:15:46;;;;;;;;;;;;;;;19.26;60.87;102913.50;4975044;28;1087;-35
2022/03/14 18:18:16;;;;;;;;;;;;;;;19.21;60.02;102915.56;4963103;28;993;-35
2022/03/14 18:20:43;;;;;;;;;;;;;;;19.21;59.73;102920.91;4968167;28;1724;-35
2022/03/14 18:23:20;;;;;;;;;;;;;;;19.19;60.31;102912.09;4974605;28;1566;-35
2022/03/14 18:25:52;;;;;;;;;;;;;;;18.77;60.37;102913.44;4974108;28;1749;-35
2022/03/14 18:28:19;;;;;;;;;;;;;;;18.84;58.64;102906.81;4970930;28;1588;-35
2022/03/14 18:30:49;;;;;;;;;;;;;;;18.91;59.20;102918.09;4975170;28;1560;-33
2022/03/14 18:33:16;;;;;;;;;;;;;;;18.90;59.06;102911.88;4973343;28;1589;-34
2022/03/14 18:35:46;;;;;;;;;;;;;;;18.79;59.89;102915.13;4972742;28;1948;-34
2022/03/14 18:41:01;;;;;;;;;;;;;;;18.76;59.58;102914.38;4971683;28;2423;-33
2022/03/14 18:43:31;;;;;;;;;;;;;;;18.72;59.60;102912.81;4971106;28;1977;-33
2022/03/14 18:45:57;;;;;;;;;;;;;;;18.71;59.40;102903.06;4971191;28;1500;-34
2022/03/14 18:48:25;;;;;;;;;;;;;;;18.90;59.08;102927.06;4965831;28;1187;-34
2022/03/14 18:50:51;;;;;;;;;;;;;;;19.16;58.47;102914.94;4964375;28;1881;-34
2022/03/14 18:53:18;;;;;;;;;;;;;;;19.14;58.66;102924.88;4972655;28;1990;-34
2022/03/14 18:55:47;;;;;;;;;;;;;;;19.22;59.19;102928.91;4974851;28;1535;-34
2022/03/14 18:58:17;;;;;;;;;;;;;;;19.22;58.87;102925.34;4974858;28;1494;-34
2022/03/14 19:00:47;;;;;;;;;;;;;;;19.28;59.15;102908.91;4975676;28;1100;-34
2022/03/14 19:03:17;;;;;;;;;;;;;;;19.31;59.03;102919.47;4978361;28;1638;-34
2022/03/14 19:05:46;;;;;;;;;;;;;;;19.37;59.14;102918.25;4963932;28;1967;-33
2022/03/14 19:08:17;;;;;;;;;;;;;;;19.39;59.26;102925.25;4967191;28;1953;-33
2022/03/14 19:10:44;;;;;;;;;;;;;;;19.39;58.24;102936.00;4974404;28;1724;-33
2022/03/14 19:13:13;;;;;;;;;;;;;;;19.42;58.37;102919.75;4963920;28;1681;-34
2022/03/14 19:15:53;;;;;;;;;;;;;;;19.43;58.49;102925.97;4973116;28;1403;-33
2022/03/14 19:18:22;;;;;;;;;;;;;;;19.47;58.44;102933.75;4974389;28;1481;-33
2022/03/14 19:20:50;;;;;;;;;;;;;;;19.50;58.70;102926.47;4969904;28;1516;-33
2022/03/14 19:23:20;;;;;;;;;;;;;;;19.37;58.99;102923.63;4971101;28;1767;-33
2022/03/14 19:25:50;;;;;;;;;;;;;;;19.26;59.83;102926.91;4975625;28;1906;-33
2022/03/14 19:28:21;;;;;;;;;;;;;;;19.26;59.28;102930.44;4970824;28;1619;-33
2022/03/14 19:30:50;;;;;;;;;;;;;;;19.16;59.10;102912.25;4973726;28;1495;-34
2022/03/14 19:33:21;;;;;;;;;;;;;;;19.16;59.73;102933.72;4970990;28;1394;-33
2022/03/14 19:35:48;;;;;;;;;;;;;;;19.08;58.96;102915.38;4972980;28;1829;-33
2022/03/14 19:38:18;;;;;;;;;;;;;;;19.05;59.13;102927.13;4973318;28;1640;-33
2022/03/14 19:40:46;;;;;;;;;;;;;;;19.02;60.07;102919.25;4970802;28;1537;-33
2022/03/14 19:43:15;;;;;;;;;;;;;;;18.99;59.47;102929.28;4965789;28;1763;-33
2022/03/14 19:45:46;;;;;;;;;;;;;;;18.94;59.89;102921.50;4972564;28;1985;-33
2022/03/14 19:48:22;;;;;;;;;;;;;;;18.95;59.84;102925.03;4968225;28;1112;-32
2022/03/14 19:50:51;;;;;;;;;;;;;;;18.85;60.21;102916.59;4972236;28;1959;-33
2022/03/14 19:53:21;;;;;;;;;;;;;;;18.81;60.61;102920.41;4972652;28;1581;-34
2022/03/14 19:55:48;;;;;;;;;;;;;;;18.86;59.08;102911.16;4977787;28;1837;-34
2022/03/14 19:58:18;;;;;;;;;;;;;;;18.98;58.45;102919.47;4972605;28;1750;-34
2022/03/14 20:00:48;;;;;;;;;;;;;;;19.06;58.77;102923.50;4974173;28;1545;-35
2022/03/14 20:03:19;;;;;;;;;;;;;;;19.27;58.72;102925.94;4960433;28;1617;-34
2022/03/14 20:05:47;;;;;;;;;;;;;;;19.17;58.16;102924.72;4972378;28;1915;-34
2022/03/14 20:08:17;;;;;;;;;;;;;;;19.13;59.39;102931.22;4973303;28;1608;-33
2022/03/14 20:10:46;;;;;;;;;;;;;;;19.10;58.61;102940.28;4973872;28;1396;-33
2022/03/14 20:13:20;;;;;;;;;;;;;;;19.16;58.75;102933.72;4968741;28;1607;-33
2022/03/14 20:15:51;;;;;;;;;;;;;;;19.04;59.06;102924.53;4974294;28;1700;-34
2022/03/14 20:18:22;;;;;;;;;;;;;;;19.01;59.44;102928.22;4971292;28;1454;-34
2022/03/14 20:20:50;;;;;;;;;;;;;;;18.98;59.10;102936.47;4973138;28;1592;-34
2022/03/14 20:23:19;;;;;;;;;;;;;;;19.03;59.35;102928.16;4972387;28;1766;-34
2022/03/14 20:25:50;;;;;;;;;;;;;;;18.98;59.57;102919.47;4973312;28;1973;-34
2022/03/14 20:28:18;;;;;;;;;;;;;;;18.94;59.67;102931.31;4956151;28;1523;-33
2022/03/14 20:30:44;;;;;;;;;;;;;;;19.06;57.91;102934.22;4974447;28;1622;-34
2022/03/14 20:33:11;;;;;;;;;;;;;;;19.00;58.98;102918.47;4975590;28;1585;-34
2022/03/14 20:35:44;;;;;;;;;;;;;;;19.02;59.34;102924.63;4965361;28;1618;-33
2022/03/14 20:38:12;;;;;;;;;;;;;;;18.93;59.35;102922.41;4965322;28;1666;-33
2022/03/14 20:40:49;;;;;;;;;;;;;;;18.94;59.48;102912.56;4970684;28;1999;-35
2022/03/14 20:43:25;;;;;;;;;;;;;;;18.93;59.06;102921.56;4974825;28;1397;-34
2022/03/14 20:45:55;;;;;;;;;;;;;;;18.96;58.24;102906.19;4973345;28;1903;-34
2022/03/14 20:48:23;;;;;;;;;;;;;;;19.00;58.19;102910.44;4977390;28;1690;-34
2022/03/14 20:50:54;;;;;;;;;;;;;;;18.92;58.57;102904.63;4971565;28;1158;-34
2022/03/14 20:53:22;;;;;;;;;;;;;;;18.88;58.63;102916.47;4976920;28;1835;-34
2022/03/14 20:55:54;;;;;;;;;;;;;;;18.77;58.89;102903.56;4978909;28;1782;-34
2022/03/14 20:58:23;;;;;;;;;;;;;;;18.69;58.80;102908.47;4973932;28;1817;-34
2022/03/14 21:03:38;;;;;;;;;;;;;;;18.48;59.37;102916.72;4974066;28;1600;-34
2022/03/14 21:06:12;;;;;;;;;;;;;;;18.40;59.43;102896.59;4977629;28;1981;-36
2022/03/14 21:08:42;;;;;;;;;;;;;;;18.36;59.62;102919.13;4974765;28;1553;-35
2022/03/14 21:11:10;;;;;;;;;;;;;;;18.35;59.56;102914.75;4970207;28;2027;-34
2022/03/14 21:13:42;;;;;;;;;;;;;;;18.28;59.85;102915.06;4973906;28;1958;-34
2022/03/14 21:16:12;;;;;;;;;;;;;;;18.24;59.61;102905.44;4960023;28;2026;-34
2022/03/14 21:18:40;;;;;;;;;;;;;;;18.24;59.47;102912.59;4972481;28;1829;-34
2022/03/14 21:21:14;;;;;;;;;;;;;;;18.25;59.42;102907.16;4975725;28;1842;-35
2022/03/14 21:23:51;;;;;;;;;;;;;;;18.24;59.66;102897.41;4977025;28;1544;-35
2022/03/14 21:26:32;;;;;;;;;;;;;;;18.25;60.23;102893.78;4977407;28;1975;-34
2022/03/14 21:29:06;;;;;;;;;;;;;;;18.32;61.20;102898.81;4969266;28;1612;-35
2022/03/14 21:31:35;;;;;;;;;;;;;;;18.34;62.45;102888.88;4974114;28;1456;-35
2022/03/14 21:34:04;;;;;;;;;;;;;;;18.23;62.24;102895.66;4970058;28;1604;-34
2022/03/14 21:36:34;;;;;;;;;;;;;;;18.18;62.16;102892.34;4958413;28;1613;-34
2022/03/14 21:39:03;;;;;;;;;;;;;;;18.18;62.16;102913.78;4961310;28;1763;-35
2022/03/14 21:41:30;;;;;;;;;;;;;;;18.18;61.58;102902.19;4971257;28;1492;-35
2022/03/14 21:44:04;;;;;;;;;;;;;;;18.26;59.58;102905.34;4968483;28;1173;-34
2022/03/14 21:49:14;;;;;;;;;;;;;;;18.11;60.09;102901.66;4970028;28;1686;-35
2022/03/14 21:51:49;;;;;;;;;;;;;;;18.00;60.25;102893.28;4970287;28;1468;-34
2022/03/14 21:54:18;;;;;;;;;;;;;;;18.02;57.41;102894.06;4959533;28;1776;-34
2022/03/14 21:56:46;;;;;;;;;;;;;;;18.12;59.93;102903.38;4965031;28;1575;-35
2022/03/14 21:59:17;;;;;;;;;;;;;;;18.02;60.03;102897.63;4960008;28;1032;-34
2022/03/14 22:01:48;;;;;;;;;;;;;;;18.02;60.11;102892.25;4959705;28;1691;-35
2022/03/14 22:04:23;;;;;;;;;;;;;;;17.96;60.27;102892.56;4969628;28;1938;-35
2022/03/14 22:06:53;;;;;;;;;;;;;;;17.95;60.51;102898.88;4965609;28;1982;-35
2022/03/14 22:09:20;;;;;;;;;;;;;;;17.93;60.73;102891.88;4966148;28;1780;-35
2022/03/14 22:11:47;;;;;;;;;;;;;;;17.93;60.42;102897.22;4957014;28;1921;-35
2022/03/14 22:14:21;;;;;;;;;;;;;;;17.89;60.85;102900.06;4970436;28;1375;-34
2022/03/14 22:16:47;;;;;;;;;;;;;;;17.93;60.90;102898.09;4971386;28;1725;-35
2022/03/14 22:19:23;;;;;;;;;;;;;;;17.95;60.76;102900.69;4959887;28;1599;-34
2022/03/14 22:21:53;;;;;;;;;;;;;;;17.98;61.01;102897.84;4968952;28;1500;-35
2022/03/14 22:24:20;;;;;;;;;;;;;;;17.99;61.09;102896.94;4971758;28;1574;-35
2022/03/14 22:26:50;;;;;;;;;;;;;;;17.99;60.69;102896.94;4962181;28;1995;-34
2022/03/14 22:29:17;;;;;;;;;;;;;;;17.96;60.44;102894.38;4963318;28;1113;-35
2022/03/14 22:31:53;;;;;;;;;;;;;;;18.06;60.66;102892.97;4958358;28;1543;-35
2022/03/14 22:34:23;;;;;;;;;;;;;;;18.36;60.60;102895.03;4965972;28;1257;-34
2022/03/14 22:36:54;;;;;;;;;;;;;;;18.60;60.56;102888.41;4962827;28;1461;-34
2022/03/14 22:39:21;;;;;;;;;;;;;;;18.81;59.17;102893.59;4969187;28;1550;-35
2022/03/14 22:41:47;;;;;;;;;;;;;;;18.94;58.37;102885.75;4964114;28;1790;-34
2022/03/14 22:44:14;;;;;;;;;;;;;;;19.04;58.50;102893.22;4964310;28;999;-34
2022/03/14 22:49:23;;;;;;;;;;;;;;;19.23;58.02;102886.84;4974694;28;2676;-34
2022/03/14 22:51:53;;;;;;;;;;;;;;;19.41;57.04;102888.47;4968138;28;1651;-34
2022/03/14 22:54:24;;;;;;;;;;;;;;;19.11;59.11;102876.78;4972603;28;1585;-34
2022/03/14 22:56:53;;;;;;;;;;;;;;;18.92;59.55;102891.22;4957142;28;1765;-34
2022/03/14 22:59:23;;;;;;;;;;;;;;;18.80;59.82;102875.75;4975672;28;1179;-34
2022/03/14 23:01:50;;;;;;;;;;;;;;;18.72;59.65;102875.28;4969665;28;1962;-35
2022/03/14 23:08:21;;;;;;;;;;;;;;;18.57;59.55;102888.56;4964706;28;1918;-34
2022/03/14 23:09:48;;;;;;;;;;;;;;;18.49;60.05;102880.91;4962974;28;1739;-34
2022/03/14 23:12:15;;;;;;;;;;;;;;;18.48;59.51;102881.00;4963870;28;1629;-34
2022/03/14 23:14:41;;;;;;;;;;;;;;;18.45;59.78;102890.06;4971693;28;1622;-34
2022/03/14 23:17:08;;;;;;;;;;;;;;;18.39;59.44;102890.38;4969800;28;1809;-34
2022/03/14 23:19:35;;;;;;;;;;;;;;;18.36;59.53;102892.34;4963545;28;1688;-35
2022/03/14 23:22:02;;;;;;;;;;;;;;;18.34;59.70;102888.88;4967732;28;1472;-34
2022/03/14 23:24:29;;;;;;;;;;;;;;;18.29;59.80;102889.13;4970028;28;1789;-34
2022/03/14 23:26:57;;;;;;;;;;;;;;;18.24;59.54;102897.41;4966724;28;1898;-34
2022/03/14 23:29:24;;;;;;;;;;;;;;;18.20;59.56;102885.09;4971561;28;1573;-34
2022/03/14 23:31:51;;;;;;;;;;;;;;;18.18;59.00;102897.69;4969425;28;2011;-34
2022/03/14 23:34:18;;;;;;;;;;;;;;;18.17;59.24;102901.34;4970145;28;1853;-34
2022/03/14 23:36:45;;;;;;;;;;;;;;;18.11;59.38;102906.16;4966953;28;1608;-34
2022/03/14 23:39:11;;;;;;;;;;;;;;;18.06;59.20;102883.16;4969616;28;1411;-34
2022/03/14 23:41:38;;;;;;;;;;;;;;;18.05;59.75;102899.28;4965837;28;1543;-34
2022/03/14 23:44:08;;;;;;;;;;;;;;;17.97;59.91;102888.97;4968576;28;1797;-34
2022/03/14 23:46:35;;;;;;;;;;;;;;;17.93;59.89;102886.53;4958347;28;1981;-34
2022/03/14 23:49:04;;;;;;;;;;;;;;;17.93;60.13;102891.88;4969453;28;1390;-34
2022/03/14 23:51:33;;;;;;;;;;;;;;;17.91;59.61;102872.34;4970378;28;1284;-34
2022/03/14 23:54:02;;;;;;;;;;;;;;;17.88;60.12;102879.56;4973462;28;1586;-34
2022/03/14 23:56:31;;;;;;;;;;;;;;;17.87;59.91;102883.19;4972598;28;1482;-36
2022/03/14 23:58:59;;;;;;;;;;;;;;;17.85;59.70;102882.41;4968531;28;1564;-34
